Time;durP1;ratioP1;P1;durP2;ratioP2;P2;SDS_P1;SDS_P2;PMS_P1;PMS_P2;Temp;Humidity;BMP_temperature;BMP_pressure;BME280_temperature;BME280_humidity;BME280_pressure;Samples;Min_cycle;Max_cycle;Signal;HPM_P1;HPM_P2
2021/12/02 00:00:40;;;;;;;3.55;0.65;;;13.20;61.10;;;;;;4958820;29;20419;-71
2021/12/02 00:03:08;;;;;;;3.83;0.60;;;13.30;61.20;;;;;;4958112;29;20035;-71
2021/12/02 00:05:34;;;;;;;3.10;0.52;;;13.30;61.10;;;;;;4958148;29;20055;-72
2021/12/02 00:08:00;;;;;;;2.65;0.60;;;13.40;61.30;;;;;;4957989;29;20050;-72
2021/12/02 00:10:31;;;;;;;2.65;0.57;;;13.50;61.10;;;;;;4958868;29;20051;-71
2021/12/02 00:12:58;;;;;;;2.55;0.57;;;13.50;60.40;;;;;;4958025;29;20051;-71
2021/12/02 00:15:29;;;;;;;3.10;0.50;;;13.50;60.40;;;;;;4958591;29;20054;-72
2021/12/02 00:18:08;;;;;;;4.78;0.73;;;13.40;60.00;;;;;;4958839;29;20047;-72
2021/12/02 00:23:36;;;;;;;3.78;0.38;;;13.40;60.30;;;;;;4958855;28;20363;-71
2021/12/02 00:26:22;;;;;;;2.53;0.40;;;13.40;60.20;;;;;;4958447;29;20047;-72
2021/12/02 00:28:56;;;;;;;3.60;0.70;;;13.40;60.50;;;;;;4958011;28;20121;-72
2021/12/02 00:31:29;;;;;;;2.83;0.50;;;13.50;60.50;;;;;;4957354;29;20058;-72
2021/12/02 00:33:57;;;;;;;4.65;0.57;;;13.50;60.70;;;;;;4957828;29;20447;-72
2021/12/02 00:36:25;;;;;;;2.80;0.30;;;13.50;60.60;;;;;;4959010;28;20058;-72
2021/12/02 00:38:52;;;;;;;2.45;0.45;;;13.60;60.20;;;;;;4958223;28;20054;-72
2021/12/02 00:41:21;;;;;;;4.22;0.40;;;13.40;59.90;;;;;;4958101;29;20146;-71
2021/12/02 00:43:49;;;;;;;3.92;0.60;;;13.40;60.20;;;;;;4958353;28;20043;-71
2021/12/02 00:46:17;;;;;;;6.63;0.75;;;13.30;59.80;;;;;;4958874;29;20043;-72
2021/12/02 00:48:43;;;;;;;3.83;0.60;;;13.20;60.10;;;;;;4957983;29;20051;-72
2021/12/02 00:51:10;;;;;;;2.78;0.60;;;13.10;61.20;;;;;;4957893;29;20059;-72
2021/12/02 00:53:44;;;;;;;2.45;0.68;;;13.10;60.50;;;;;;4957987;29;20047;-72
2021/12/02 00:56:11;;;;;;;;;;;13.00;60.90;;;;;;4958515;29;20059;-71
2021/12/02 00:58:37;;;;;;;4.38;0.75;;;13.10;60.00;;;;;;4958165;28;19923;-71
2021/12/02 01:01:04;;;;;;;4.03;0.60;;;13.00;60.70;;;;;;4956417;29;20539;-71
2021/12/02 01:03:34;;;;;;;1.98;0.40;;;13.10;61.00;;;;;;4956955;29;20463;-71
2021/12/02 01:06:00;;;;;;;4.95;0.70;;;13.10;61.10;;;;;;4957615;28;20051;-71
2021/12/02 01:08:27;;;;;;;3.38;0.47;;;13.20;61.00;;;;;;4957975;28;20363;-71
2021/12/02 01:10:53;;;;;;;2.90;0.40;;;13.30;60.90;;;;;;4957916;28;20359;-72
2021/12/02 01:13:19;;;;;;;1.85;0.50;;;13.30;60.70;;;;;;4957794;29;20055;-72
2021/12/02 01:15:45;;;;;;;2.70;0.50;;;13.30;60.70;;;;;;4957629;28;20048;-71
2021/12/02 01:18:11;;;;;;;5.10;0.73;;;13.40;60.70;;;;;;4958116;28;20267;-71
2021/12/02 01:20:38;;;;;;;3.20;0.52;;;13.40;60.70;;;;;;4957741;29;20102;-71
2021/12/02 01:23:06;;;;;;;4.80;0.88;;;13.40;60.70;;;;;;4957335;28;20138;-71
2021/12/02 01:25:32;;;;;;;4.65;0.43;;;13.40;60.80;;;;;;4957677;28;20055;-72
2021/12/02 01:27:59;;;;;;;2.35;0.50;;;13.40;60.70;;;;;;4956391;29;20043;-72
2021/12/02 01:30:29;;;;;;;2.58;0.50;;;13.40;60.70;;;;;;4957282;28;20047;-72
2021/12/02 01:33:04;;;;;;;1.67;0.43;;;13.30;60.70;;;;;;4957156;28;20070;-72
2021/12/02 01:35:31;;;;;;;1.52;0.30;;;13.20;60.40;;;;;;4972224;28;20054;-71
2021/12/02 01:37:57;;;;;;;2.28;0.40;;;13.10;60.80;;;;;;4957484;29;20051;-72
2021/12/02 01:40:23;;;;;;;3.00;0.47;;;13.00;60.80;;;;;;4956520;28;20467;-72
2021/12/02 01:42:55;;;;;;;2.97;0.40;;;12.90;60.70;;;;;;4957419;29;20188;-72
2021/12/02 01:45:26;;;;;;;2.15;0.20;;;12.90;61.20;;;;;;4957558;29;20059;-71
2021/12/02 01:47:54;;;;;;;0.50;0.20;;;12.90;60.90;;;;;;4957045;29;20047;-72
2021/12/02 01:50:22;;;;;;;2.13;0.30;;;13.00;61.30;;;;;;4956291;29;20062;-71
2021/12/02 01:52:57;;;;;;;2.47;0.20;;;13.10;61.30;;;;;;4956622;28;20122;-72
2021/12/02 01:55:24;;;;;;;1.40;0.20;;;13.20;60.50;;;;;;4956586;29;20460;-72
2021/12/02 01:58:03;;;;;;;0.93;0.10;;;13.20;60.90;;;;;;4957467;29;20439;-72
2021/12/02 02:00:46;;;;;;;1.67;0.28;;;13.20;60.70;;;;;;4956949;29;20086;-72
2021/12/02 02:03:15;;;;;;;2.73;0.10;;;13.30;60.20;;;;;;4955372;29;20192;-72
2021/12/02 02:05:42;;;;;;;3.10;0.40;;;13.30;60.60;;;;;;4957149;29;20121;-71
2021/12/02 02:08:17;;;;;;;2.28;0.20;;;13.30;60.50;;;;;;4956825;29;20113;-72
2021/12/02 02:10:45;;;;;;;2.65;0.20;;;13.30;60.40;;;;;;4957291;29;20480;-72
2021/12/02 02:13:12;;;;;;;2.08;0.28;;;13.30;60.40;;;;;;4957124;29;20075;-72
2021/12/02 02:15:41;;;;;;;0.50;0.10;;;13.30;60.30;;;;;;4957638;29;20047;-72
2021/12/02 02:18:13;;;;;;;1.88;0.20;;;13.30;60.30;;;;;;4957070;29;20121;-71
2021/12/02 02:21:02;;;;;;;1.23;0.30;;;13.30;60.10;;;;;;4956068;29;20059;-72
2021/12/02 02:23:30;;;;;;;1.33;0.20;;;13.30;60.00;;;;;;4956864;29;20055;-71
2021/12/02 02:25:57;;;;;;;0.70;0.20;;;13.30;60.10;;;;;;4956901;29;20047;-71
2021/12/02 02:28:23;;;;;;;1.25;0.10;;;13.30;60.00;;;;;;4957054;29;20069;-72
2021/12/02 02:30:50;;;;;;;2.47;0.20;;;13.30;59.90;;;;;;4956711;29;20157;-72
2021/12/02 02:33:18;;;;;;;3.17;0.22;;;13.30;59.90;;;;;;4956544;29;20161;-71
2021/12/02 02:35:45;;;;;;;2.38;0.40;;;13.30;60.00;;;;;;4955718;29;20463;-71
2021/12/02 02:38:12;;;;;;;1.48;0.25;;;13.30;59.80;;;;;;4956580;29;20506;-72
2021/12/02 02:40:41;;;;;;;0.35;0.08;;;13.30;59.90;;;;;;4956850;29;20133;-72
2021/12/02 02:43:09;;;;;;;0.98;0.10;;;13.20;59.80;;;;;;4937628;29;20067;-71
2021/12/02 02:45:36;;;;;;;3.13;0.20;;;13.10;59.60;;;;;;4937421;29;20087;-72
2021/12/02 02:48:02;;;;;;;1.83;0.20;;;13.00;59.80;;;;;;4937449;29;20052;-72
2021/12/02 02:50:30;;;;;;;1.63;0.20;;;12.90;59.90;;;;;;4938492;29;20125;-71
2021/12/02 02:53:20;;;;;;;2.03;0.28;;;12.90;60.30;;;;;;4941049;29;20098;-71
2021/12/02 02:56:10;;;;;;;0.50;0.22;;;12.90;60.20;;;;;;4941724;29;20127;-72
2021/12/02 03:01:18;;;;;;;1.30;0.30;;;12.80;60.40;;;;;;4923609;29;20063;-71
2021/12/02 03:03:56;;;;;;;3.42;0.20;;;12.80;60.60;;;;;;4940811;29;20127;-71
2021/12/02 03:09:01;;;;;;;1.88;0.25;;;13.00;60.70;;;;;;4940761;29;20052;-71
2021/12/02 03:11:36;;;;;;;1.58;0.15;;;13.00;60.50;;;;;;4940588;29;20443;-71
2021/12/02 03:14:08;;;;;;;0.95;0.20;;;13.00;60.30;;;;;;4941409;29;20055;-71
2021/12/02 03:16:52;;;;;;;1.60;0.30;;;12.90;60.10;;;;;;4940580;29;20122;-71
2021/12/02 03:19:29;;;;;;;1.98;0.47;;;12.90;60.30;;;;;;4940454;29;20099;-71
2021/12/02 03:21:56;;;;;;;1.42;0.38;;;13.00;60.40;;;;;;4940476;29;20044;-71
2021/12/02 03:24:23;;;;;;;2.40;0.20;;;13.00;60.40;;;;;;4940506;29;20051;-72
2021/12/02 03:26:49;;;;;;;2.17;0.40;;;12.90;60.20;;;;;;4939971;29;20056;-72
2021/12/02 03:29:15;;;;;;;4.18;0.35;;;13.00;60.40;;;;;;4940685;29;20063;-71
2021/12/02 03:31:41;;;;;;;2.30;0.43;;;13.00;60.40;;;;;;4939536;29;20348;-73
2021/12/02 03:34:07;;;;;;;1.05;0.22;;;13.00;60.40;;;;;;4923552;29;20048;-71
2021/12/02 03:36:33;;;;;;;1.77;0.30;;;13.10;60.40;;;;;;4923871;29;20079;-72
2021/12/02 03:39:00;;;;;;;6.32;0.47;;;13.10;60.10;;;;;;4923641;29;20063;-72
2021/12/02 03:41:26;;;;;;;2.75;0.28;;;13.00;60.20;;;;;;4945772;29;20059;-73
2021/12/02 03:43:52;;;;;;;0.63;0.20;;;13.00;60.00;;;;;;4960063;29;20470;-71
2021/12/02 03:46:21;;;;;;;2.72;0.40;;;12.90;60.20;;;;;;4958681;29;20095;-71
2021/12/02 03:48:49;;;;;;;1.45;0.40;;;12.70;60.20;;;;;;4959788;29;20383;-71
2021/12/02 03:51:15;;;;;;;2.08;0.30;;;12.60;60.30;;;;;;4959892;29;20043;-72
2021/12/02 03:53:41;;;;;;;1.17;0.20;;;12.50;60.40;;;;;;4959322;29;20366;-72
2021/12/02 03:56:08;;;;;;;3.05;0.20;;;12.40;60.90;;;;;;4959881;29;20046;-72
2021/12/02 03:58:35;;;;;;;1.02;0.20;;;12.40;61.00;;;;;;4959002;28;20046;-72
2021/12/02 04:01:02;;;;;;;1.02;0.25;;;12.30;61.00;;;;;;4958684;29;20379;-71
2021/12/02 04:03:27;;;;;;;1.77;0.10;;;12.30;60.90;;;;;;4958176;28;20062;-71
2021/12/02 04:05:53;;;;;;;2.25;0.32;;;12.30;61.00;;;;;;4958816;29;20051;-71
2021/12/02 04:08:19;;;;;;;1.92;0.20;;;12.30;61.10;;;;;;4959717;28;20089;-71
2021/12/02 04:10:46;;;;;;;0.95;0.20;;;12.30;61.00;;;;;;4958702;29;20051;-72
2021/12/02 04:13:20;;;;;;;1.92;0.30;;;12.30;61.20;;;;;;4958766;29;20065;-71
2021/12/02 04:15:53;;;;;;;1.05;0.20;;;12.30;61.20;;;;;;4958640;29;20126;-72
2021/12/02 04:18:19;;;;;;;2.42;0.20;;;12.40;61.30;;;;;;4958808;29;20379;-72
2021/12/02 04:20:45;;;;;;;1.10;0.10;;;12.40;61.30;;;;;;4959055;29;20057;-71
2021/12/02 04:23:10;;;;;;;1.42;0.10;;;12.40;61.30;;;;;;4958518;29;20114;-71
2021/12/02 04:25:36;;;;;;;0.22;0.10;;;12.40;61.10;;;;;;4958629;28;20043;-71
2021/12/02 04:28:02;;;;;;;2.00;0.10;;;12.40;61.00;;;;;;4958886;28;20106;-71
2021/12/02 04:30:28;;;;;;;1.65;0.20;;;12.30;61.10;;;;;;4958369;29;20102;-71
2021/12/02 04:32:54;;;;;;;1.70;0.20;;;12.40;61.40;;;;;;4958038;28;20375;-72
2021/12/02 04:35:21;;;;;;;3.20;0.30;;;12.50;61.40;;;;;;4958614;28;20043;-72
2021/12/02 04:37:51;;;;;;;1.02;0.10;;;12.60;61.20;;;;;;4958641;28;20051;-71
2021/12/02 04:40:18;;;;;;;1.65;0.10;;;12.60;61.10;;;;;;4958399;28;20055;-71
2021/12/02 04:42:45;;;;;;;1.50;0.20;;;12.70;61.00;;;;;;4958189;28;20462;-71
2021/12/02 04:45:12;;;;;;;1.50;0.15;;;12.70;60.80;;;;;;4958385;28;20055;-71
2021/12/02 04:47:38;;;;;;;2.83;0.10;;;12.80;60.70;;;;;;4957452;29;20062;-72
2021/12/02 04:50:06;;;;;;;1.55;0.20;;;12.80;60.50;;;;;;4958061;28;20363;-71
2021/12/02 04:52:32;;;;;;;1.38;0.08;;;12.80;60.20;;;;;;4958028;28;20333;-71
2021/12/02 04:54:59;;;;;;;1.23;0.20;;;12.80;60.40;;;;;;4957898;29;20046;-70
2021/12/02 04:57:25;;;;;;;0.50;0.30;;;12.80;60.30;;;;;;4958452;29;20058;-71
2021/12/02 04:59:51;;;;;;;0.98;0.20;;;12.90;60.20;;;;;;4957715;29;20441;-72
2021/12/02 05:02:16;;;;;;;0.70;0.00;;;12.80;60.10;;;;;;4958581;29;20050;-71
2021/12/02 05:04:42;;;;;;;1.40;0.35;;;12.80;60.20;;;;;;4958218;29;20055;-72
2021/12/02 05:07:08;;;;;;;0.63;0.03;;;12.80;60.30;;;;;;4957959;29;20051;-72
2021/12/02 05:09:34;;;;;;;1.13;0.20;;;12.80;60.30;;;;;;4957718;29;20054;-72
2021/12/02 05:11:59;;;;;;;0.93;0.10;;;12.90;60.30;;;;;;4957573;29;20475;-72
2021/12/02 05:14:25;;;;;;;0.57;0.03;;;12.90;60.30;;;;;;4957000;28;20367;-70
2021/12/02 05:16:51;;;;;;;1.50;0.10;;;12.90;60.20;;;;;;4956741;29;20047;-70
2021/12/02 05:19:16;;;;;;;1.15;0.20;;;12.90;60.40;;;;;;4954224;29;20058;-73
2021/12/02 05:21:42;;;;;;;0.90;0.10;;;13.00;60.60;;;;;;4957525;29;20113;-71
2021/12/02 05:24:08;;;;;;;1.63;0.20;;;13.00;60.00;;;;;;4957806;28;20121;-70
2021/12/02 05:26:34;;;;;;;1.10;0.20;;;13.10;59.60;;;;;;4957261;28;20043;-72
2021/12/02 05:28:59;;;;;;;1.70;0.13;;;13.10;59.50;;;;;;4955805;29;20047;-71
2021/12/02 05:31:25;;;;;;;4.65;0.40;;;13.10;60.00;;;;;;4956555;29;20142;-76
2021/12/02 05:33:51;;;;;;;6.50;0.35;;;13.10;60.60;;;;;;4952403;29;20091;-71
2021/12/02 05:36:17;;;;;;;3.03;0.30;;;13.20;61.00;;;;;;4952927;29;20054;-70
2021/12/02 05:38:42;;;;;;;6.38;0.50;;;13.30;61.40;;;;;;4956263;29;20130;-71
2021/12/02 05:41:09;;;;;;;1.83;0.20;;;13.50;61.30;;;;;;4957119;29;20130;-73
2021/12/02 05:43:35;;;;;;;5.43;0.47;;;13.70;61.30;;;;;;4955809;28;20059;-71
2021/12/02 05:46:01;;;;;;;7.35;0.60;;;14.00;61.30;;;;;;4946434;29;20143;-73
2021/12/02 05:48:27;;;;;;;2.40;0.40;;;14.20;61.10;;;;;;4937418;29;20056;-75
2021/12/02 05:50:52;;;;;;;8.15;0.50;;;14.50;61.10;;;;;;4937257;29;20131;-72
2021/12/02 05:53:18;;;;;;;6.47;0.50;;;14.60;61.20;;;;;;4956304;29;20051;-74
2021/12/02 05:55:44;;;;;;;8.57;0.88;;;14.80;61.00;;;;;;4956851;29;20090;-75
2021/12/02 05:58:13;;;;;;;6.05;0.30;;;14.90;60.80;;;;;;4956240;29;20462;-72
2021/12/02 06:06:03;;;;;;;11.80;0.90;;;15.00;60.90;;;;;;5265532;23;20780;-77
2021/12/02 06:08:32;;;;;;;5.97;0.65;;;15.10;60.90;;;;;;4982009;28;20057;-76
2021/12/02 06:10:58;;;;;;;12.35;0.70;;;14.30;59.10;;;;;;5015327;28;20054;-76
2021/12/02 06:13:25;;;;;;;8.20;0.55;;;14.40;62.00;;;;;;5015198;28;20173;-75
2021/12/02 06:15:52;;;;;;;6.68;0.82;;;14.50;62.30;;;;;;5015116;28;20053;-75
2021/12/02 06:18:18;;;;;;;5.65;0.60;;;14.70;62.60;;;;;;5013860;28;20137;-74
2021/12/02 06:20:47;;;;;;;5.07;0.50;;;14.80;62.70;;;;;;5015668;28;20511;-75
2021/12/02 06:23:12;;;;;;;5.55;0.60;;;14.90;62.60;;;;;;5016048;28;20046;-75
2021/12/02 06:28:05;;;;;;;4.35;0.30;;;15.10;62.60;;;;;;5019219;28;20085;-74
2021/12/02 06:30:32;;;;;;;5.30;0.60;;;15.20;62.60;;;;;;5021357;28;20054;-77
2021/12/02 06:32:57;;;;;;;9.80;0.52;;;15.30;62.70;;;;;;5019685;28;20422;-73
2021/12/02 06:35:23;;;;;;;11.35;1.20;;;15.40;62.80;;;;;;5038933;28;20045;-75
2021/12/02 06:37:49;;;;;;;5.63;0.40;;;15.40;62.40;;;;;;5039000;28;20045;-74
2021/12/02 06:40:15;;;;;;;10.85;1.10;;;15.50;61.90;;;;;;5038776;28;20091;-74
2021/12/02 06:42:41;;;;;;;5.68;0.85;;;15.60;61.20;;;;;;5038529;28;20073;-73
2021/12/02 06:45:09;;;;;;;10.60;1.50;;;15.70;60.60;;;;;;5021493;28;20140;-71
2021/12/02 06:47:41;;;;;;;17.63;4.65;;;15.80;60.00;;;;;;5038722;28;20056;-74
2021/12/02 06:50:16;;;;;;;12.25;4.63;;;15.90;59.60;;;;;;5038709;28;20045;-73
2021/12/02 06:52:42;;;;;;;14.32;5.35;;;15.90;59.10;;;;;;5037208;28;20485;-73
2021/12/02 06:55:09;;;;;;;14.90;4.05;;;15.90;59.40;;;;;;5018524;28;20092;-74
2021/12/02 06:57:35;;;;;;;7.63;3.35;;;16.00;58.90;;;;;;5023168;28;20050;-72
2021/12/02 07:00:07;;;;;;;6.43;2.80;;;16.10;58.50;;;;;;5038100;28;20419;-76
2021/12/02 07:02:33;;;;;;;6.75;2.78;;;16.10;58.50;;;;;;5037307;28;20045;-75
2021/12/02 07:04:58;;;;;;;7.90;2.60;;;16.20;57.80;;;;;;5037388;28;20052;-73
2021/12/02 07:07:30;;;;;;;10.35;3.25;;;16.20;57.50;;;;;;5033799;28;20050;-76
2021/12/02 07:09:55;;;;;;;9.60;2.45;;;16.20;57.60;;;;;;5026765;28;20050;-74
2021/12/02 07:12:28;;;;;;;6.93;2.30;;;16.30;57.40;;;;;;5020652;28;20376;-74
2021/12/02 07:14:54;;;;;;;5.78;2.50;;;16.30;57.30;;;;;;5005811;28;20052;-74
2021/12/02 07:17:20;;;;;;;8.73;2.20;;;16.40;57.20;;;;;;5018231;28;20415;-68
2021/12/02 07:19:46;;;;;;;4.43;2.17;;;16.40;57.20;;;;;;5018268;28;20046;-74
2021/12/02 07:22:11;;;;;;;3.42;1.60;;;16.50;57.10;;;;;;5020888;28;20046;-67
2021/12/02 07:24:37;;;;;;;6.50;1.80;;;16.50;57.10;;;;;;5008946;28;20077;-70
2021/12/02 07:27:03;;;;;;;6.10;1.90;;;16.50;57.10;;;;;;5020818;28;20076;-76
2021/12/02 07:29:31;;;;;;;5.28;1.38;;;16.50;57.20;;;;;;5006023;28;20050;-75
2021/12/02 07:31:59;;;;;;;5.72;1.38;;;16.50;57.30;;;;;;5017896;28;20050;-76
2021/12/02 07:34:32;;;;;;;3.70;1.65;;;16.50;58.20;;;;;;5017973;28;20516;-73
2021/12/02 07:36:58;;;;;;;8.32;1.10;;;16.50;57.80;;;;;;5020769;28;20053;-77
2021/12/02 07:39:24;;;;;;;7.15;1.10;;;16.60;57.60;;;;;;5020150;28;20139;-75
2021/12/02 07:41:51;;;;;;;3.75;0.90;;;16.70;57.00;;;;;;5007248;28;20054;-78
2021/12/02 07:44:18;;;;;;;7.10;1.40;;;16.70;56.50;;;;;;5036688;28;20403;-77
2021/12/02 07:46:44;;;;;;;7.53;0.60;;;16.70;57.90;;;;;;5002480;28;20123;-77
2021/12/02 07:49:13;;;;;;;2.25;0.77;;;16.60;56.90;;;;;;4984079;28;20057;-76
2021/12/02 07:51:45;;;;;;;7.97;0.90;;;16.60;56.30;;;;;;5017660;28;20045;-73
2021/12/02 07:54:12;;;;;;;4.20;0.70;;;16.50;58.10;;;;;;5009132;28;20046;-78
2021/12/02 07:56:38;;;;;;;2.42;0.50;;;16.40;58.10;;;;;;5029735;28;20117;-78
2021/12/02 07:59:05;;;;;;;3.22;1.00;;;16.50;57.40;;;;;;5035190;28;20439;-77
2021/12/02 08:01:34;;;;;;;6.90;0.90;;;16.50;57.10;;;;;;4999253;28;20107;-76
2021/12/02 08:04:00;;;;;;;5.50;0.93;;;16.40;60.40;;;;;;5005897;28;20120;-78
2021/12/02 08:06:26;;;;;;;3.78;0.40;;;16.50;59.20;;;;;;5030801;28;20128;-78
2021/12/02 08:08:52;;;;;;;4.25;0.70;;;16.60;57.90;;;;;;4995400;28;20050;-77
2021/12/02 08:11:18;;;;;;;2.30;0.32;;;16.70;57.50;;;;;;5013812;28;20050;-79
2021/12/02 08:13:44;;;;;;;4.20;0.40;;;16.70;57.20;;;;;;5019576;28;20378;-78
2021/12/02 08:16:09;;;;;;;1.98;0.40;;;16.80;57.10;;;;;;4988835;28;20057;-78
2021/12/02 08:18:36;;;;;;;3.53;0.43;;;16.80;57.00;;;;;;5031027;28;20041;-78
2021/12/02 08:21:01;;;;;;;3.65;0.32;;;16.80;57.00;;;;;;5000362;28;20054;-79
2021/12/02 08:23:27;;;;;;;0.95;0.30;;;16.80;57.00;;;;;;5019820;28;20042;-78
2021/12/02 08:25:54;;;;;;;4.03;0.35;;;16.80;56.90;;;;;;5007424;28;20073;-78
2021/12/02 08:28:20;;;;;;;2.72;0.30;;;16.70;58.10;;;;;;5010465;28;20080;-80
2021/12/02 08:30:46;;;;;;;1.92;0.30;;;16.80;57.40;;;;;;5018938;28;20068;-79
2021/12/02 08:33:14;;;;;;;1.80;0.32;;;16.80;57.20;;;;;;5036060;28;20368;-77
2021/12/02 08:35:40;;;;;;;2.70;0.60;;;16.90;57.10;;;;;;4995367;28;20069;-79
2021/12/02 08:38:11;;;;;;;2.78;0.25;;;16.90;57.10;;;;;;4991782;28;20455;-79
2021/12/02 08:40:39;;;;;;;1.17;0.20;;;16.90;57.10;;;;;;5032867;28;20029;-78
2021/12/02 08:43:09;;;;;;;3.75;0.30;;;17.00;57.10;;;;;;5005624;28;20053;-75
2021/12/02 08:45:37;;;;;;;1.13;0.38;;;17.00;56.90;;;;;;5032233;28;20051;-77
2021/12/02 08:48:04;;;;;;;2.97;0.47;;;17.00;57.40;;;;;;5004567;28;20041;-78
2021/12/02 08:50:30;;;;;;;5.45;0.60;;;16.80;58.60;;;;;;5018169;28;20037;-78
2021/12/02 08:52:57;;;;;;;4.63;0.55;;;16.70;59.90;;;;;;5024008;28;20057;-75
2021/12/02 08:55:24;;;;;;;3.58;0.45;;;16.60;60.50;;;;;;5030884;28;20116;-77
2021/12/02 08:57:52;;;;;;;3.95;0.30;;;16.50;59.70;;;;;;5029013;28;20041;-76
2021/12/02 09:00:20;;;;;;;5.25;0.43;;;16.50;58.60;;;;;;5019182;28;20057;-76
2021/12/02 09:02:46;;;;;;;7.00;0.32;;;16.40;58.70;;;;;;5017544;28;20048;-75
2021/12/02 09:05:13;;;;;;;3.72;0.20;;;16.30;59.90;;;;;;5010181;28;20049;-77
2021/12/02 09:07:39;;;;;;;5.05;0.77;;;16.20;59.10;;;;;;5007809;28;20418;-77
2021/12/02 09:10:07;;;;;;;1.70;0.38;;;16.10;59.50;;;;;;5016049;28;20049;-76
2021/12/02 09:12:33;;;;;;;2.70;0.43;;;16.10;60.00;;;;;;5023919;28;20423;-77
2021/12/02 09:14:59;;;;;;;3.63;0.30;;;16.20;59.60;;;;;;5008589;28;20118;-76
2021/12/02 09:17:25;;;;;;;1.75;0.30;;;16.20;59.50;;;;;;5017976;28;20132;-69
2021/12/02 09:19:51;;;;;;;3.95;0.50;;;16.40;59.20;;;;;;5030146;28;20128;-71
2021/12/02 09:22:17;;;;;;;4.00;0.22;;;16.50;58.90;;;;;;4999527;28;20129;-76
2021/12/02 09:24:48;;;;;;;2.40;0.20;;;16.60;57.70;;;;;;4998703;28;20211;-76
2021/12/02 09:27:14;;;;;;;4.55;0.32;;;16.80;57.20;;;;;;4998423;28;20050;-77
2021/12/02 09:29:40;;;;;;;12.43;0.93;;;16.80;57.10;;;;;;4998819;28;20060;-76
2021/12/02 09:32:06;;;;;;;5.28;0.80;;;16.90;57.30;;;;;;5016070;28;20076;-75
2021/12/02 09:34:31;;;;;;;5.65;0.45;;;16.90;57.10;;;;;;5012254;28;20128;-74
2021/12/02 09:36:57;;;;;;;8.32;0.70;;;17.00;57.10;;;;;;5010105;28;20129;-78
2021/12/02 09:39:30;;;;;;;12.68;1.02;;;17.00;57.50;;;;;;5019361;28;20060;-77
2021/12/02 09:41:56;;;;;;;9.85;0.70;;;17.10;57.40;;;;;;5035323;28;20033;-77
2021/12/02 09:44:22;;;;;;;7.40;0.35;;;17.10;57.50;;;;;;5035013;28;20079;-76
2021/12/02 09:46:52;;;;;;;3.05;0.50;;;17.10;57.60;;;;;;5035327;28;20132;-79
2021/12/02 09:49:19;;;;;;;9.80;0.82;;;17.10;57.70;;;;;;5035252;28;20056;-77
2021/12/02 09:51:56;;;;;;;6.88;0.77;;;17.10;57.70;;;;;;5001270;28;20049;-78
2021/12/02 09:54:36;;;;;;;6.72;0.45;;;17.10;57.80;;;;;;5017513;28;20418;-77
2021/12/02 09:57:04;;;;;;;5.95;0.63;;;17.10;58.00;;;;;;5035426;28;20344;-75
2021/12/02 10:02:08;;;;;;;8.50;0.65;;;17.20;57.60;;;;;;5034143;28;20364;-75
2021/12/02 10:04:43;;;;;;;5.95;0.70;;;17.20;57.30;;;;;;5035094;28;20064;-78
2021/12/02 10:10:08;;;;;;;4.80;0.68;;;17.10;57.30;;;;;;5017901;28;20056;-77
2021/12/02 10:12:37;;;;;;;8.98;0.80;;;17.10;57.60;;;;;;4994782;28;20404;-79
2021/12/02 10:15:09;;;;;;;6.43;0.52;;;17.10;57.80;;;;;;5020262;28;20052;-77
2021/12/02 10:17:44;;;;;;;11.52;0.80;;;17.10;57.80;;;;;;5026534;28;20353;-75
2021/12/02 10:20:29;;;;;;;5.63;0.93;;;17.10;58.10;;;;;;5029209;28;20060;-76
2021/12/02 10:25:58;;;;;;;3.55;0.38;;;17.10;58.40;;;;;;5005655;28;20069;-76
2021/12/02 10:28:27;;;;;;;6.85;0.75;;;17.10;58.30;;;;;;5035107;28;20061;-77
2021/12/02 10:30:55;;;;;;;8.73;0.70;;;17.00;58.30;;;;;;5022966;28;20065;-77
2021/12/02 10:33:33;;;;;;;11.25;0.73;;;17.00;58.40;;;;;;4997810;28;20111;-76
2021/12/02 10:36:00;;;;;;;6.75;0.57;;;17.10;57.70;;;;;;4997758;28;20131;-77
2021/12/02 10:38:38;;;;;;;10.35;0.88;;;17.00;57.40;;;;;;5014758;28;20049;-77
2021/12/02 10:41:08;;;;;;;9.50;0.65;;;17.00;57.10;;;;;;4997990;28;20499;-76
2021/12/02 10:43:34;;;;;;;6.75;0.55;;;17.00;57.50;;;;;;5015030;28;20050;-77
2021/12/02 10:46:18;;;;;;;4.40;0.38;;;17.10;57.10;;;;;;5016560;28;20065;-79
2021/12/02 10:48:53;;;;;;;;;;;17.10;55.60;;;;;;5017667;28;20064;-78
2021/12/02 10:51:37;;;;;;;3.35;0.55;;;16.90;55.70;;;;;;5011381;28;19932;-79
2021/12/02 10:54:12;;;;;;;4.38;0.45;;;16.90;56.10;;;;;;4997810;28;20065;-78
2021/12/02 10:56:38;;;;;;;4.40;0.50;;;16.90;56.50;;;;;;4980907;28;20456;-77
2021/12/02 10:59:30;;;;;;;3.35;0.40;;;16.90;56.70;;;;;;5014255;28;20833;-79
2021/12/02 11:02:08;;;;;;;6.10;0.45;;;17.00;56.90;;;;;;5000949;28;20059;-77
2021/12/02 11:04:41;;;;;;;10.95;0.85;;;17.00;56.40;;;;;;4985042;28;20530;-76
2021/12/02 11:07:10;;;;;;;16.00;0.38;;;17.00;56.80;;;;;;5020035;28;20057;-78
2021/12/02 11:09:39;;;;;;;8.85;1.05;;;17.00;57.30;;;;;;5001641;28;20050;-78
2021/12/02 11:12:08;;;;;;;3.28;0.43;;;17.10;57.20;;;;;;5016675;28;20034;-76
2021/12/02 11:14:38;;;;;;;6.43;0.63;;;17.10;56.60;;;;;;4984845;28;20121;-78
2021/12/02 11:17:15;;;;;;;12.90;0.60;;;17.00;56.30;;;;;;5002150;28;20033;-74
2021/12/02 11:19:49;;;;;;;6.13;0.90;;;17.10;56.70;;;;;;5018087;28;20041;-77
2021/12/02 11:22:21;;;;;;;9.88;1.13;;;17.10;56.60;;;;;;5017882;28;20100;-74
2021/12/02 11:24:48;;;;;;;10.60;1.05;;;17.10;56.20;;;;;;5017959;28;20081;-78
2021/12/02 11:27:26;;;;;;;5.53;0.70;;;17.10;55.80;;;;;;5021665;28;20050;-78
2021/12/02 11:29:58;;;;;;;5.47;0.68;;;17.10;57.40;;;;;;5020824;28;20049;-75
2021/12/02 11:32:39;;;;;;;6.17;0.40;;;17.00;57.60;;;;;;5035606;28;20135;-75
2021/12/02 11:35:13;;;;;;;3.30;0.55;;;17.00;55.80;;;;;;5031149;28;20452;-75
2021/12/02 11:37:43;;;;;;;2.88;0.60;;;17.00;54.70;;;;;;5035847;28;20163;-76
2021/12/02 11:40:18;;;;;;;5.65;0.70;;;16.90;53.80;;;;;;5024784;28;20120;-73
2021/12/02 11:42:45;;;;;;;10.20;1.00;;;16.90;52.40;;;;;;5022458;28;20095;-74
2021/12/02 11:45:12;;;;;;;6.13;0.50;;;16.80;52.50;;;;;;5037181;28;20041;-79
2021/12/02 11:47:45;;;;;;;5.78;1.13;;;16.80;52.10;;;;;;5009151;28;20341;-82
2021/12/02 11:50:13;;;;;;;5.00;0.82;;;16.70;54.50;;;;;;5000278;28;20107;-78
2021/12/02 11:52:41;;;;;;;5.18;0.70;;;16.60;53.00;;;;;;5020323;28;20380;-74
2021/12/02 11:55:19;;;;;;;6.13;0.98;;;16.50;53.70;;;;;;5022353;28;20041;-75
2021/12/02 11:57:46;;;;;;;3.42;0.60;;;16.40;53.70;;;;;;5023520;28;20069;-74
2021/12/02 12:00:15;;;;;;;4.13;0.50;;;16.40;54.60;;;;;;5022968;28;20117;-68
2021/12/02 12:03:03;;;;;;;4.97;0.98;;;16.40;54.00;;;;;;5022979;28;20076;-78
2021/12/02 12:05:41;;;;;;;28.02;15.35;;;16.40;53.70;;;;;;5025133;28;20049;-77
2021/12/02 12:08:07;;;;;;;20.23;10.73;;;16.40;53.60;;;;;;5004350;28;20054;-76
2021/12/02 12:10:40;;;;;;;9.75;5.20;;;16.40;53.20;;;;;;5016126;28;20156;-79
2021/12/02 12:13:29;;;;;;;9.70;2.53;;;16.40;52.10;;;;;;5014914;28;20427;-79
2021/12/02 12:16:00;;;;;;;5.65;1.60;;;16.50;49.70;;;;;;5016786;28;20345;-79
2021/12/02 12:18:25;;;;;;;7.22;1.67;;;16.30;49.50;;;;;;4999343;28;20045;-79
2021/12/02 12:21:06;;;;;;;7.38;2.00;;;16.20;50.10;;;;;;5024004;28;20093;-81
2021/12/02 12:23:40;;;;;;;6.78;2.00;;;16.20;50.70;;;;;;4982922;28;20045;-80
2021/12/02 12:26:18;;;;;;;;;;;16.20;51.20;;;;;;5016985;28;20054;-79
2021/12/02 12:32:01;;;;;;;6.72;1.38;;;16.20;51.80;;;;;;4997355;28;20369;-79
2021/12/02 12:34:30;;;;;;;3.20;1.15;;;16.20;51.90;;;;;;4998412;28;20099;-80
2021/12/02 12:37:46;;;;;;;4.32;0.68;;;16.20;51.50;;;;;;4996641;28;20050;-81
2021/12/02 12:40:28;;;;;;;7.68;0.90;;;16.20;50.80;;;;;;4983264;28;20042;-79
2021/12/02 12:42:57;;;;;;;5.60;0.68;;;16.20;50.10;;;;;;4995166;28;20057;-78
2021/12/02 12:45:28;;;;;;;1.92;0.30;;;16.10;49.50;;;;;;5001622;28;20488;-76
2021/12/02 12:47:58;;;;;;;5.45;0.45;;;16.10;48.90;;;;;;4994244;28;20089;-78
2021/12/02 12:50:24;;;;;;;3.17;0.55;;;16.00;49.00;;;;;;4999168;28;20042;-80
2021/12/02 12:53:05;;;;;;;7.10;0.82;;;16.00;50.20;;;;;;5016414;28;20064;-79
2021/12/02 12:55:32;;;;;;;5.95;0.68;;;15.90;53.30;;;;;;5012863;28;20081;-71
2021/12/02 12:58:19;;;;;;;5.22;0.80;;;15.90;53.00;;;;;;5000932;28;20045;-79
2021/12/02 13:00:48;;;;;;;5.57;0.98;;;16.00;55.70;;;;;;4998351;28;20497;-77
2021/12/02 13:03:30;;;;;;;5.60;0.60;;;16.00;54.80;;;;;;5027750;28;20042;-77
2021/12/02 13:06:21;;;;;;;8.27;0.98;;;16.10;55.30;;;;;;4997021;28;20052;-75
2021/12/02 13:08:50;;;;;;;4.88;0.77;;;16.10;56.10;;;;;;5000177;28;20057;-73
2021/12/02 13:11:18;;;;;;;3.63;0.70;;;16.20;56.00;;;;;;4994331;28;20052;-77
2021/12/02 13:13:46;;;;;;;6.10;0.90;;;16.20;56.90;;;;;;4995421;28;20054;-75
2021/12/02 13:16:15;;;;;;;5.10;0.52;;;16.20;56.00;;;;;;5000630;28;20033;-78
2021/12/02 13:18:44;;;;;;;5.63;0.93;;;16.30;56.20;;;;;;4998570;28;20633;-78
2021/12/02 13:21:28;;;;;;;3.85;0.57;;;16.30;55.90;;;;;;5009473;28;20124;-74
2021/12/02 13:24:05;;;;;;;4.18;0.32;;;16.20;54.10;;;;;;5028175;28;20054;-79
2021/12/02 13:26:44;;;;;;;4.85;0.28;;;16.30;53.20;;;;;;4999482;28;20080;-79